sensor_id;sensor_type;location;lat;lon;timestamp;temperature;humidity
10312;DHT22;5201;48.776;9.128;2022-11-20T00:01:15;8.20;99.90
10312;DHT22;5201;48.776;9.128;2022-11-20T00:03:41;8.20;99.90
10312;DHT22;5201;48.776;9.128;2022-11-20T00:06:09;8.10;99.90
10312;DHT22;5201;48.776;9.128;2022-11-20T00:08:35;7.90;99.90
10312;DHT22;5201;48.776;9.128;2022-11-20T00:11:24;8.10;99.90
10312;DHT22;5201;48.776;9.128;2022-11-20T00:13:52;8.20;99.90
10312;DHT22;5201;48.776;9.128;2022-11-20T00:16:19;8.00;99.90
10312;DHT22;5201;48.776;9.128;2022-11-20T00:18:45;8.40;99.90
10312;DHT22;5201;48.776;9.128;2022-11-20T00:21:19;7.90;99.90
10312;DHT22;5201;48.776;9.128;2022-11-20T00:23:45;8.00;99.90
10312;DHT22;5201;48.776;9.128;2022-11-20T00:26:13;8.00;99.90
10312;DHT22;5201;48.776;9.128;2022-11-20T00:28:39;8.00;99.90
10312;DHT22;5201;48.776;9.128;2022-11-20T00:31:07;8.00;99.90
10312;DHT22;5201;48.776;9.128;2022-11-20T00:33:33;8.00;99.90
10312;DHT22;5201;48.776;9.128;2022-11-20T00:36:07;7.80;99.90
10312;DHT22;5201;48.776;9.128;2022-11-20T00:38:33;7.80;99.90
10312;DHT22;5201;48.776;9.128;2022-11-20T00:41:07;7.80;99.90
10312;DHT22;5201;48.776;9.128;2022-11-20T00:43:33;8.00;99.90
10312;DHT22;5201;48.776;9.128;2022-11-20T00:46:01;8.10;99.90
10312;DHT22;5201;48.776;9.128;2022-11-20T00:48:27;8.00;99.90
10312;DHT22;5201;48.776;9.128;2022-11-20T00:50:53;8.00;99.90
10312;DHT22;5201;48.776;9.128;2022-11-20T00:53:19;8.00;99.90
10312;DHT22;5201;48.776;9.128;2022-11-20T00:55:55;7.90;99.90
10312;DHT22;5201;48.776;9.128;2022-11-20T00:58:22;7.80;99.90
10312;DHT22;5201;48.776;9.128;2022-11-20T01:00:47;7.70;99.90
10312;DHT22;5201;48.776;9.128;2022-11-20T01:03:15;7.70;99.90
10312;DHT22;5201;48.776;9.128;2022-11-20T01:05:41;7.60;99.90
10312;DHT22;5201;48.776;9.128;2022-11-20T01:08:07;7.60;99.90
10312;DHT22;5201;48.776;9.128;2022-11-20T01:10:32;7.50;99.90
10312;DHT22;5201;48.776;9.128;2022-11-20T01:12:58;7.80;99.90
10312;DHT22;5201;48.776;9.128;2022-11-20T01:15:42;7.60;99.90
10312;DHT22;5201;48.776;9.128;2022-11-20T01:18:07;7.50;99.90
10312;DHT22;5201;48.776;9.128;2022-11-20T01:20:36;7.20;99.90
10312;DHT22;5201;48.776;9.128;2022-11-20T01:23:05;7.10;99.90
10312;DHT22;5201;48.776;9.128;2022-11-20T01:25:30;7.10;99.90
10312;DHT22;5201;48.776;9.128;2022-11-20T01:27:56;7.10;99.90
10312;DHT22;5201;48.776;9.128;2022-11-20T01:30:22;7.00;99.90
10312;DHT22;5201;48.776;9.128;2022-11-20T01:32:47;7.00;99.90
10312;DHT22;5201;48.776;9.128;2022-11-20T01:35:13;6.90;99.90
10312;DHT22;5201;48.776;9.128;2022-11-20T01:37:38;6.90;99.90
10312;DHT22;5201;48.776;9.128;2022-11-20T01:40:04;7.00;99.90
10312;DHT22;5201;48.776;9.128;2022-11-20T01:42:31;7.00;99.90
10312;DHT22;5201;48.776;9.128;2022-11-20T01:45:48;7.00;99.90
10312;DHT22;5201;48.776;9.128;2022-11-20T01:48:15;6.90;99.90
10312;DHT22;5201;48.776;9.128;2022-11-20T01:50:42;6.90;99.90
10312;DHT22;5201;48.776;9.128;2022-11-20T01:53:10;6.80;99.90
10312;DHT22;5201;48.776;9.128;2022-11-20T01:55:43;7.00;99.90
10312;DHT22;5201;48.776;9.128;2022-11-20T01:58:10;7.10;99.90
10312;DHT22;5201;48.776;9.128;2022-11-20T02:00:37;7.10;99.90
10312;DHT22;5201;48.776;9.128;2022-11-20T02:03:07;7.00;99.90
10312;DHT22;5201;48.776;9.128;2022-11-20T02:08:03;7.20;99.90
10312;DHT22;5201;48.776;9.128;2022-11-20T02:10:30;7.10;99.90
10312;DHT22;5201;48.776;9.128;2022-11-20T02:12:56;7.30;99.90
10312;DHT22;5201;48.776;9.128;2022-11-20T02:15:41;7.10;99.90
10312;DHT22;5201;48.776;9.128;2022-11-20T02:18:09;7.10;99.90
10312;DHT22;5201;48.776;9.128;2022-11-20T02:20:35;7.20;99.90
10312;DHT22;5201;48.776;9.128;2022-11-20T02:23:07;7.10;99.90
10312;DHT22;5201;48.776;9.128;2022-11-20T02:25:35;6.90;99.90
10312;DHT22;5201;48.776;9.128;2022-11-20T02:28:02;6.80;99.90
10312;DHT22;5201;48.776;9.128;2022-11-20T02:30:28;6.90;99.90
10312;DHT22;5201;48.776;9.128;2022-11-20T02:32:54;7.00;99.90
10312;DHT22;5201;48.776;9.128;2022-11-20T02:37:48;7.20;99.90
10312;DHT22;5201;48.776;9.128;2022-11-20T02:40:15;7.50;99.90
10312;DHT22;5201;48.776;9.128;2022-11-20T02:42:41;7.50;99.90
10312;DHT22;5201;48.776;9.128;2022-11-20T02:45:07;7.50;99.90
10312;DHT22;5201;48.776;9.128;2022-11-20T02:47:33;7.50;99.90
10312;DHT22;5201;48.776;9.128;2022-11-20T02:49:59;7.60;99.90
10312;DHT22;5201;48.776;9.128;2022-11-20T02:52:25;7.70;99.90
10312;DHT22;5201;48.776;9.128;2022-11-20T02:54:51;7.70;99.90
10312;DHT22;5201;48.776;9.128;2022-11-20T02:57:16;7.70;99.90
10312;DHT22;5201;48.776;9.128;2022-11-20T02:59:42;8.10;99.90
10312;DHT22;5201;48.776;9.128;2022-11-20T03:02:07;7.70;99.90
10312;DHT22;5201;48.776;9.128;2022-11-20T03:04:33;7.60;99.90
10312;DHT22;5201;48.776;9.128;2022-11-20T03:06:59;7.50;99.90
10312;DHT22;5201;48.776;9.128;2022-11-20T03:09:24;7.60;99.90
10312;DHT22;5201;48.776;9.128;2022-11-20T03:11:50;7.50;99.90
10312;DHT22;5201;48.776;9.128;2022-11-20T03:14:16;7.50;99.90
10312;DHT22;5201;48.776;9.128;2022-11-20T03:16:41;7.50;99.90
10312;DHT22;5201;48.776;9.128;2022-11-20T03:19:07;7.40;99.90
10312;DHT22;5201;48.776;9.128;2022-11-20T03:21:33;7.40;99.90
10312;DHT22;5201;48.776;9.128;2022-11-20T03:23:59;7.10;99.90
10312;DHT22;5201;48.776;9.128;2022-11-20T03:26:25;7.10;99.90
10312;DHT22;5201;48.776;9.128;2022-11-20T03:28:57;7.10;99.90
10312;DHT22;5201;48.776;9.128;2022-11-20T03:31:37;6.90;99.90
10312;DHT22;5201;48.776;9.128;2022-11-20T03:34:05;6.90;99.90
10312;DHT22;5201;48.776;9.128;2022-11-20T03:36:31;6.90;99.90
10312;DHT22;5201;48.776;9.128;2022-11-20T03:38:57;6.90;99.90
10312;DHT22;5201;48.776;9.128;2022-11-20T03:41:28;7.00;99.90
10312;DHT22;5201;48.776;9.128;2022-11-20T03:44:00;6.90;99.90
10312;DHT22;5201;48.776;9.128;2022-11-20T03:46:27;6.90;99.90
10312;DHT22;5201;48.776;9.128;2022-11-20T03:48:53;6.70;99.90
10312;DHT22;5201;48.776;9.128;2022-11-20T03:51:24;6.60;99.90
10312;DHT22;5201;48.776;9.128;2022-11-20T03:53:51;6.30;99.90
10312;DHT22;5201;48.776;9.128;2022-11-20T03:56:22;6.20;99.90
10312;DHT22;5201;48.776;9.128;2022-11-20T03:58:47;6.20;99.90
10312;DHT22;5201;48.776;9.128;2022-11-20T04:01:18;6.20;99.90
10312;DHT22;5201;48.776;9.128;2022-11-20T04:03:45;6.20;99.90
10312;DHT22;5201;48.776;9.128;2022-11-20T04:08:36;6.50;99.90
10312;DHT22;5201;48.776;9.128;2022-11-20T04:11:17;6.50;99.90
10312;DHT22;5201;48.776;9.128;2022-11-20T04:13:47;6.30;99.90
10312;DHT22;5201;48.776;9.128;2022-11-20T04:16:13;6.40;99.90
10312;DHT22;5201;48.776;9.128;2022-11-20T04:18:38;6.40;99.90
10312;DHT22;5201;48.776;9.128;2022-11-20T04:21:05;6.40;99.90
10312;DHT22;5201;48.776;9.128;2022-11-20T04:23:30;6.60;99.90
10312;DHT22;5201;48.776;9.128;2022-11-20T04:26:04;6.60;99.90
10312;DHT22;5201;48.776;9.128;2022-11-20T04:28:30;6.60;99.90
10312;DHT22;5201;48.776;9.128;2022-11-20T04:31:11;6.50;99.90
10312;DHT22;5201;48.776;9.128;2022-11-20T04:33:37;6.40;99.90
10312;DHT22;5201;48.776;9.128;2022-11-20T04:36:22;6.30;99.90
10312;DHT22;5201;48.776;9.128;2022-11-20T04:38:53;6.50;99.90
10312;DHT22;5201;48.776;9.128;2022-11-20T04:41:22;6.70;99.90
10312;DHT22;5201;48.776;9.128;2022-11-20T04:43:49;6.50;99.90
10312;DHT22;5201;48.776;9.128;2022-11-20T04:46:17;6.60;99.90
10312;DHT22;5201;48.776;9.128;2022-11-20T04:48:42;6.60;99.90
10312;DHT22;5201;48.776;9.128;2022-11-20T04:51:08;6.80;99.90
10312;DHT22;5201;48.776;9.128;2022-11-20T04:53:34;6.80;99.90
10312;DHT22;5201;48.776;9.128;2022-11-20T04:56:05;6.90;99.90
10312;DHT22;5201;48.776;9.128;2022-11-20T04:58:32;6.80;99.90
10312;DHT22;5201;48.776;9.128;2022-11-20T05:01:05;6.80;99.90
10312;DHT22;5201;48.776;9.128;2022-11-20T05:03:31;6.90;99.90
10312;DHT22;5201;48.776;9.128;2022-11-20T05:06:00;6.90;99.90
10312;DHT22;5201;48.776;9.128;2022-11-20T05:08:27;7.00;99.90
10312;DHT22;5201;48.776;9.128;2022-11-20T05:10:52;6.90;99.90
10312;DHT22;5201;48.776;9.128;2022-11-20T05:13:18;6.80;99.90
10312;DHT22;5201;48.776;9.128;2022-11-20T05:15:43;6.90;99.90
10312;DHT22;5201;48.776;9.128;2022-11-20T05:18:09;7.00;99.90
10312;DHT22;5201;48.776;9.128;2022-11-20T05:20:35;7.00;99.90
10312;DHT22;5201;48.776;9.128;2022-11-20T05:23:01;7.00;99.90
10312;DHT22;5201;48.776;9.128;2022-11-20T05:25:27;7.10;99.90
10312;DHT22;5201;48.776;9.128;2022-11-20T05:27:53;7.00;99.90
10312;DHT22;5201;48.776;9.128;2022-11-20T05:30:19;7.00;99.90
10312;DHT22;5201;48.776;9.128;2022-11-20T05:32:44;7.00;99.90
10312;DHT22;5201;48.776;9.128;2022-11-20T05:35:10;7.00;99.90
10312;DHT22;5201;48.776;9.128;2022-11-20T05:37:35;7.00;99.90
10312;DHT22;5201;48.776;9.128;2022-11-20T05:40:01;6.90;99.90
10312;DHT22;5201;48.776;9.128;2022-11-20T05:42:30;7.00;99.90
10312;DHT22;5201;48.776;9.128;2022-11-20T05:45:02;7.10;99.90
10312;DHT22;5201;48.776;9.128;2022-11-20T05:47:32;7.20;99.90
10312;DHT22;5201;48.776;9.128;2022-11-20T05:49:58;7.40;99.90
10312;DHT22;5201;48.776;9.128;2022-11-20T05:52:23;7.40;99.90
10312;DHT22;5201;48.776;9.128;2022-11-20T05:54:49;7.40;99.90
10312;DHT22;5201;48.776;9.128;2022-11-20T05:57:15;7.50;99.90
10312;DHT22;5201;48.776;9.128;2022-11-20T05:59:40;7.50;99.90
10312;DHT22;5201;48.776;9.128;2022-11-20T06:02:06;7.70;99.90
10312;DHT22;5201;48.776;9.128;2022-11-20T06:04:31;7.60;99.90
10312;DHT22;5201;48.776;9.128;2022-11-20T06:06:57;7.70;99.90
10312;DHT22;5201;48.776;9.128;2022-11-20T06:09:22;7.80;99.90
10312;DHT22;5201;48.776;9.128;2022-11-20T06:11:48;7.70;99.90
10312;DHT22;5201;48.776;9.128;2022-11-20T06:14:14;7.70;99.90
10312;DHT22;5201;48.776;9.128;2022-11-20T06:16:39;7.70;99.90
10312;DHT22;5201;48.776;9.128;2022-11-20T06:19:05;7.80;99.90
10312;DHT22;5201;48.776;9.128;2022-11-20T06:21:31;7.70;99.90
10312;DHT22;5201;48.776;9.128;2022-11-20T06:23:56;7.60;99.90
10312;DHT22;5201;48.776;9.128;2022-11-20T06:26:24;7.50;99.90
10312;DHT22;5201;48.776;9.128;2022-11-20T06:28:51;7.50;99.90
10312;DHT22;5201;48.776;9.128;2022-11-20T06:31:20;7.50;99.90
10312;DHT22;5201;48.776;9.128;2022-11-20T06:33:47;7.50;99.90
10312;DHT22;5201;48.776;9.128;2022-11-20T06:36:14;7.50;99.90
10312;DHT22;5201;48.776;9.128;2022-11-20T06:38:40;7.30;99.90
10312;DHT22;5201;48.776;9.128;2022-11-20T06:41:10;7.30;99.90
10312;DHT22;5201;48.776;9.128;2022-11-20T06:43:36;7.60;99.90
10312;DHT22;5201;48.776;9.128;2022-11-20T06:46:01;7.10;99.90
10312;DHT22;5201;48.776;9.128;2022-11-20T06:48:28;7.00;99.90
10312;DHT22;5201;48.776;9.128;2022-11-20T06:50:54;7.00;99.90
10312;DHT22;5201;48.776;9.128;2022-11-20T06:53:21;7.10;99.90
10312;DHT22;5201;48.776;9.128;2022-11-20T06:55:48;7.10;99.90
10312;DHT22;5201;48.776;9.128;2022-11-20T06:58:15;7.00;99.90
10312;DHT22;5201;48.776;9.128;2022-11-20T07:00:41;7.10;99.90
10312;DHT22;5201;48.776;9.128;2022-11-20T07:03:08;7.20;99.90
10312;DHT22;5201;48.776;9.128;2022-11-20T07:05:35;7.00;99.90
10312;DHT22;5201;48.776;9.128;2022-11-20T07:08:00;6.90;99.90
10312;DHT22;5201;48.776;9.128;2022-11-20T07:10:26;7.00;99.90
10312;DHT22;5201;48.776;9.128;2022-11-20T07:12:53;7.00;99.90
10312;DHT22;5201;48.776;9.128;2022-11-20T07:15:20;7.00;99.90
10312;DHT22;5201;48.776;9.128;2022-11-20T07:17:45;7.00;99.90
10312;DHT22;5201;48.776;9.128;2022-11-20T07:20:12;7.60;99.90
10312;DHT22;5201;48.776;9.128;2022-11-20T07:22:38;6.90;99.90
10312;DHT22;5201;48.776;9.128;2022-11-20T07:25:04;6.80;99.90
10312;DHT22;5201;48.776;9.128;2022-11-20T07:27:30;6.90;99.90
10312;DHT22;5201;48.776;9.128;2022-11-20T07:29:56;6.90;99.90
10312;DHT22;5201;48.776;9.128;2022-11-20T07:32:21;7.00;99.90
10312;DHT22;5201;48.776;9.128;2022-11-20T07:34:47;7.00;99.90
10312;DHT22;5201;48.776;9.128;2022-11-20T07:37:13;6.90;99.90
10312;DHT22;5201;48.776;9.128;2022-11-20T07:39:39;6.90;99.90
10312;DHT22;5201;48.776;9.128;2022-11-20T07:42:06;7.00;99.90
10312;DHT22;5201;48.776;9.128;2022-11-20T07:44:32;6.90;99.90
10312;DHT22;5201;48.776;9.128;2022-11-20T07:46:58;6.90;99.90
10312;DHT22;5201;48.776;9.128;2022-11-20T07:49:23;7.00;99.90
10312;DHT22;5201;48.776;9.128;2022-11-20T07:51:52;7.10;99.90
10312;DHT22;5201;48.776;9.128;2022-11-20T07:54:19;7.20;99.90
10312;DHT22;5201;48.776;9.128;2022-11-20T07:56:45;7.10;99.90
10312;DHT22;5201;48.776;9.128;2022-11-20T07:59:11;7.30;99.90
10312;DHT22;5201;48.776;9.128;2022-11-20T08:01:40;7.50;99.90
10312;DHT22;5201;48.776;9.128;2022-11-20T08:04:06;7.50;99.90
10312;DHT22;5201;48.776;9.128;2022-11-20T08:06:32;7.40;99.90
10312;DHT22;5201;48.776;9.128;2022-11-20T08:08:57;7.50;99.90
10312;DHT22;5201;48.776;9.128;2022-11-20T08:11:23;7.30;99.90
10312;DHT22;5201;48.776;9.128;2022-11-20T08:14:07;7.40;99.90
10312;DHT22;5201;48.776;9.128;2022-11-20T08:16:48;7.30;99.90
10312;DHT22;5201;48.776;9.128;2022-11-20T08:19:16;7.30;99.90
10312;DHT22;5201;48.776;9.128;2022-11-20T08:21:42;7.30;99.90
10312;DHT22;5201;48.776;9.128;2022-11-20T08:24:08;7.30;99.90
10312;DHT22;5201;48.776;9.128;2022-11-20T08:26:35;7.50;99.90
10312;DHT22;5201;48.776;9.128;2022-11-20T08:29:01;7.60;99.90
10312;DHT22;5201;48.776;9.128;2022-11-20T08:31:27;7.60;99.90
10312;DHT22;5201;48.776;9.128;2022-11-20T08:33:53;7.60;99.90
10312;DHT22;5201;48.776;9.128;2022-11-20T08:36:19;7.60;99.90
10312;DHT22;5201;48.776;9.128;2022-11-20T08:38:53;7.70;99.90
10312;DHT22;5201;48.776;9.128;2022-11-20T08:41:20;7.70;99.90
10312;DHT22;5201;48.776;9.128;2022-11-20T08:43:56;7.60;99.90
10312;DHT22;5201;48.776;9.128;2022-11-20T08:46:24;7.70;99.90
10312;DHT22;5201;48.776;9.128;2022-11-20T08:48:50;7.90;99.90
10312;DHT22;5201;48.776;9.128;2022-11-20T08:51:16;8.00;99.90
10312;DHT22;5201;48.776;9.128;2022-11-20T08:53:42;8.30;99.90
10312;DHT22;5201;48.776;9.128;2022-11-20T08:56:08;8.00;99.90
10312;DHT22;5201;48.776;9.128;2022-11-20T08:58:35;8.10;99.90
10312;DHT22;5201;48.776;9.128;2022-11-20T09:01:01;8.10;99.90
10312;DHT22;5201;48.776;9.128;2022-11-20T09:03:33;8.10;99.90
10312;DHT22;5201;48.776;9.128;2022-11-20T09:06:04;8.10;99.90
10312;DHT22;5201;48.776;9.128;2022-11-20T09:08:30;8.10;99.90
10312;DHT22;5201;48.776;9.128;2022-11-20T09:10:57;8.20;99.90
10312;DHT22;5201;48.776;9.128;2022-11-20T09:13:24;8.60;99.90
10312;DHT22;5201;48.776;9.128;2022-11-20T09:15:55;8.30;99.90
10312;DHT22;5201;48.776;9.128;2022-11-20T09:18:21;8.40;99.90
10312;DHT22;5201;48.776;9.128;2022-11-20T09:20:47;8.30;99.90
10312;DHT22;5201;48.776;9.128;2022-11-20T09:23:13;8.40;99.90
10312;DHT22;5201;48.776;9.128;2022-11-20T09:25:39;8.30;99.90
10312;DHT22;5201;48.776;9.128;2022-11-20T09:28:04;8.30;99.90
10312;DHT22;5201;48.776;9.128;2022-11-20T09:30:30;8.70;99.90
10312;DHT22;5201;48.776;9.128;2022-11-20T09:32:56;8.30;99.90
10312;DHT22;5201;48.776;9.128;2022-11-20T09:35:22;8.40;99.90
10312;DHT22;5201;48.776;9.128;2022-11-20T09:37:47;8.20;99.90
10312;DHT22;5201;48.776;9.128;2022-11-20T09:40:22;8.10;99.90
10312;DHT22;5201;48.776;9.128;2022-11-20T09:43:12;8.10;99.90
10312;DHT22;5201;48.776;9.128;2022-11-20T09:51:35;8.10;99.90
10312;DHT22;5201;48.776;9.128;2022-11-20T09:56:31;8.20;99.90
10312;DHT22;5201;48.776;9.128;2022-11-20T09:59:03;8.10;99.90
10312;DHT22;5201;48.776;9.128;2022-11-20T10:01:32;8.10;99.90
10312;DHT22;5201;48.776;9.128;2022-11-20T10:04:18;8.20;99.90
10312;DHT22;5201;48.776;9.128;2022-11-20T10:09:26;8.00;99.90
10312;DHT22;5201;48.776;9.128;2022-11-20T10:12:12;7.90;99.90
10312;DHT22;5201;48.776;9.128;2022-11-20T10:14:52;7.80;99.90
10312;DHT22;5201;48.776;9.128;2022-11-20T10:18:17;8.00;99.90
10312;DHT22;5201;48.776;9.128;2022-11-20T10:23:40;8.30;99.90
10312;DHT22;5201;48.776;9.128;2022-11-20T10:26:37;8.20;99.90
10312;DHT22;5201;48.776;9.128;2022-11-20T10:29:12;8.20;99.90
10312;DHT22;5201;48.776;9.128;2022-11-20T10:32:00;8.10;99.90
10312;DHT22;5201;48.776;9.128;2022-11-20T10:34:31;7.90;99.90
10312;DHT22;5201;48.776;9.128;2022-11-20T10:37:03;8.00;99.90
10312;DHT22;5201;48.776;9.128;2022-11-20T10:42:11;8.00;99.90
10312;DHT22;5201;48.776;9.128;2022-11-20T10:44:39;8.00;99.90
10312;DHT22;5201;48.776;9.128;2022-11-20T10:47:25;8.00;99.90
10312;DHT22;5201;48.776;9.128;2022-11-20T10:49:54;8.20;99.90
10312;DHT22;5201;48.776;9.128;2022-11-20T10:55:42;8.30;99.90
10312;DHT22;5201;48.776;9.128;2022-11-20T10:58:14;8.30;99.90
10312;DHT22;5201;48.776;9.128;2022-11-20T11:00:40;8.20;99.90
10312;DHT22;5201;48.776;9.128;2022-11-20T11:03:22;8.20;99.90
10312;DHT22;5201;48.776;9.128;2022-11-20T11:06:07;8.20;99.90
10312;DHT22;5201;48.776;9.128;2022-11-20T11:08:40;8.30;99.90
10312;DHT22;5201;48.776;9.128;2022-11-20T11:11:22;8.30;99.90
10312;DHT22;5201;48.776;9.128;2022-11-20T11:13:48;8.30;99.90
10312;DHT22;5201;48.776;9.128;2022-11-20T11:16:23;8.50;99.90
10312;DHT22;5201;48.776;9.128;2022-11-20T11:18:49;8.30;99.90
10312;DHT22;5201;48.776;9.128;2022-11-20T11:21:21;8.40;99.90
10312;DHT22;5201;48.776;9.128;2022-11-20T11:24:00;8.50;99.90
10312;DHT22;5201;48.776;9.128;2022-11-20T11:26:27;8.70;99.90
10312;DHT22;5201;48.776;9.128;2022-11-20T11:29:02;8.80;99.90
10312;DHT22;5201;48.776;9.128;2022-11-20T11:31:31;8.80;99.90
10312;DHT22;5201;48.776;9.128;2022-11-20T11:34:13;8.80;99.90
10312;DHT22;5201;48.776;9.128;2022-11-20T11:36:38;8.90;99.90
10312;DHT22;5201;48.776;9.128;2022-11-20T11:39:08;8.80;99.90
10312;DHT22;5201;48.776;9.128;2022-11-20T11:41:36;8.90;99.90
10312;DHT22;5201;48.776;9.128;2022-11-20T11:47:10;8.90;99.90
10312;DHT22;5201;48.776;9.128;2022-11-20T11:49:36;8.90;99.90
10312;DHT22;5201;48.776;9.128;2022-11-20T11:52:08;9.00;99.90
10312;DHT22;5201;48.776;9.128;2022-11-20T11:54:43;9.00;99.90
10312;DHT22;5201;48.776;9.128;2022-11-20T11:57:29;9.00;99.90
10312;DHT22;5201;48.776;9.128;2022-11-20T12:00:14;9.00;99.90
10312;DHT22;5201;48.776;9.128;2022-11-20T12:02:53;9.10;99.90
10312;DHT22;5201;48.776;9.128;2022-11-20T12:10:56;9.60;99.90
10312;DHT22;5201;48.776;9.128;2022-11-20T12:16:34;8.70;99.90
10312;DHT22;5201;48.776;9.128;2022-11-20T12:19:10;8.70;99.90
10312;DHT22;5201;48.776;9.128;2022-11-20T12:30:12;9.30;99.90
10312;DHT22;5201;48.776;9.128;2022-11-20T12:49:17;9.10;99.90
10312;DHT22;5201;48.776;9.128;2022-11-20T13:05:18;9.00;99.90
10312;DHT22;5201;48.776;9.128;2022-11-20T13:07:45;9.00;99.90
10312;DHT22;5201;48.776;9.128;2022-11-20T13:10:46;9.10;99.90
10312;DHT22;5201;48.776;9.128;2022-11-20T13:13:31;9.10;99.90
10312;DHT22;5201;48.776;9.128;2022-11-20T13:16:17;9.00;99.90
10312;DHT22;5201;48.776;9.128;2022-11-20T13:18:45;9.20;99.90
10312;DHT22;5201;48.776;9.128;2022-11-20T13:21:19;9.10;99.90
10312;DHT22;5201;48.776;9.128;2022-11-20T13:23:45;9.10;99.90
10312;DHT22;5201;48.776;9.128;2022-11-20T13:26:20;9.00;99.90
10312;DHT22;5201;48.776;9.128;2022-11-20T13:28:48;8.90;99.90
10312;DHT22;5201;48.776;9.128;2022-11-20T13:31:34;8.90;99.90
10312;DHT22;5201;48.776;9.128;2022-11-20T13:34:03;8.90;99.90
10312;DHT22;5201;48.776;9.128;2022-11-20T13:36:30;9.00;99.90
10312;DHT22;5201;48.776;9.128;2022-11-20T13:38:58;9.00;99.90
10312;DHT22;5201;48.776;9.128;2022-11-20T13:41:32;9.00;99.90
10312;DHT22;5201;48.776;9.128;2022-11-20T13:44:14;9.10;99.90
10312;DHT22;5201;48.776;9.128;2022-11-20T13:46:41;9.00;99.90
10312;DHT22;5201;48.776;9.128;2022-11-20T13:49:18;8.90;99.90
10312;DHT22;5201;48.776;9.128;2022-11-20T13:51:49;8.80;99.90
10312;DHT22;5201;48.776;9.128;2022-11-20T13:54:44;8.80;99.90
10312;DHT22;5201;48.776;9.128;2022-11-20T13:57:40;8.70;99.90
10312;DHT22;5201;48.776;9.128;2022-11-20T14:02:37;8.20;99.90
10312;DHT22;5201;48.776;9.128;2022-11-20T14:05:04;8.10;99.90
10312;DHT22;5201;48.776;9.128;2022-11-20T14:07:41;8.20;99.90
10312;DHT22;5201;48.776;9.128;2022-11-20T14:10:23;8.20;99.90
10312;DHT22;5201;48.776;9.128;2022-11-20T14:12:49;8.10;99.90
10312;DHT22;5201;48.776;9.128;2022-11-20T14:15:34;8.20;99.90
10312;DHT22;5201;48.776;9.128;2022-11-20T14:18:12;8.20;99.90
10312;DHT22;5201;48.776;9.128;2022-11-20T14:20:38;8.20;99.90
10312;DHT22;5201;48.776;9.128;2022-11-20T14:23:04;8.20;99.90
10312;DHT22;5201;48.776;9.128;2022-11-20T14:25:33;8.30;99.90
10312;DHT22;5201;48.776;9.128;2022-11-20T14:28:00;8.40;99.90
10312;DHT22;5201;48.776;9.128;2022-11-20T14:30:47;8.50;99.90
10312;DHT22;5201;48.776;9.128;2022-11-20T14:33:14;8.50;99.90
10312;DHT22;5201;48.776;9.128;2022-11-20T14:35:48;8.50;99.90
10312;DHT22;5201;48.776;9.128;2022-11-20T14:38:17;8.80;99.90
10312;DHT22;5201;48.776;9.128;2022-11-20T14:40:43;8.80;99.90
10312;DHT22;5201;48.776;9.128;2022-11-20T14:43:19;8.80;99.90
10312;DHT22;5201;48.776;9.128;2022-11-20T14:45:52;8.80;99.90
10312;DHT22;5201;48.776;9.128;2022-11-20T14:48:23;8.80;99.90
10312;DHT22;5201;48.776;9.128;2022-11-20T14:50:50;8.70;99.90
10312;DHT22;5201;48.776;9.128;2022-11-20T14:53:23;8.70;99.90
10312;DHT22;5201;48.776;9.128;2022-11-20T14:55:55;8.60;99.90
10312;DHT22;5201;48.776;9.128;2022-11-20T14:58:32;8.60;99.90
10312;DHT22;5201;48.776;9.128;2022-11-20T15:01:03;8.60;99.90
10312;DHT22;5201;48.776;9.128;2022-11-20T15:03:37;8.60;99.90
10312;DHT22;5201;48.776;9.128;2022-11-20T15:06:04;8.60;99.90
10312;DHT22;5201;48.776;9.128;2022-11-20T15:08:30;8.60;99.90
10312;DHT22;5201;48.776;9.128;2022-11-20T15:10:56;8.60;99.90
10312;DHT22;5201;48.776;9.128;2022-11-20T15:13:33;8.60;99.90
10312;DHT22;5201;48.776;9.128;2022-11-20T15:16:04;8.60;99.90
10312;DHT22;5201;48.776;9.128;2022-11-20T15:18:38;8.60;99.90
10312;DHT22;5201;48.776;9.128;2022-11-20T15:21:13;8.60;99.90
10312;DHT22;5201;48.776;9.128;2022-11-20T15:23:39;8.70;99.90
10312;DHT22;5201;48.776;9.128;2022-11-20T15:26:06;8.60;99.90
10312;DHT22;5201;48.776;9.128;2022-11-20T15:28:39;8.40;99.90
10312;DHT22;5201;48.776;9.128;2022-11-20T15:31:05;8.20;99.90
10312;DHT22;5201;48.776;9.128;2022-11-20T15:33:32;8.20;99.90
10312;DHT22;5201;48.776;9.128;2022-11-20T15:35:58;8.20;99.90
10312;DHT22;5201;48.776;9.128;2022-11-20T15:38:23;8.30;99.90
10312;DHT22;5201;48.776;9.128;2022-11-20T15:40:49;9.00;99.90
10312;DHT22;5201;48.776;9.128;2022-11-20T15:43:15;8.20;99.90
10312;DHT22;5201;48.776;9.128;2022-11-20T15:45:49;8.20;99.90
10312;DHT22;5201;48.776;9.128;2022-11-20T15:48:28;8.00;99.90
10312;DHT22;5201;48.776;9.128;2022-11-20T15:53:36;7.90;99.90
10312;DHT22;5201;48.776;9.128;2022-11-20T15:56:02;7.90;99.90
10312;DHT22;5201;48.776;9.128;2022-11-20T15:58:28;7.90;99.90
10312;DHT22;5201;48.776;9.128;2022-11-20T16:00:54;8.20;99.90
10312;DHT22;5201;48.776;9.128;2022-11-20T16:03:20;8.40;99.90
10312;DHT22;5201;48.776;9.128;2022-11-20T16:05:46;8.50;99.90
10312;DHT22;5201;48.776;9.128;2022-11-20T16:08:12;8.50;99.90
10312;DHT22;5201;48.776;9.128;2022-11-20T16:10:38;8.60;99.90
10312;DHT22;5201;48.776;9.128;2022-11-20T16:13:04;8.40;99.90
10312;DHT22;5201;48.776;9.128;2022-11-20T16:15:57;8.50;99.90
10312;DHT22;5201;48.776;9.128;2022-11-20T16:18:24;8.50;99.90
10312;DHT22;5201;48.776;9.128;2022-11-20T16:20:52;8.60;99.90
10312;DHT22;5201;48.776;9.128;2022-11-20T16:23:18;8.80;99.90
10312;DHT22;5201;48.776;9.128;2022-11-20T16:25:44;8.70;99.90
10312;DHT22;5201;48.776;9.128;2022-11-20T16:28:10;8.60;99.90
10312;DHT22;5201;48.776;9.128;2022-11-20T16:30:37;8.50;99.90
10312;DHT22;5201;48.776;9.128;2022-11-20T16:33:03;8.50;99.90
10312;DHT22;5201;48.776;9.128;2022-11-20T16:35:30;8.50;99.90
10312;DHT22;5201;48.776;9.128;2022-11-20T16:37:56;8.50;99.90
10312;DHT22;5201;48.776;9.128;2022-11-20T16:40:22;8.30;99.90
10312;DHT22;5201;48.776;9.128;2022-11-20T16:42:48;8.30;99.90
10312;DHT22;5201;48.776;9.128;2022-11-20T16:45:14;8.20;99.90
10312;DHT22;5201;48.776;9.128;2022-11-20T16:47:40;8.10;99.90
10312;DHT22;5201;48.776;9.128;2022-11-20T16:50:06;8.20;99.90
10312;DHT22;5201;48.776;9.128;2022-11-20T16:52:32;8.30;99.90
10312;DHT22;5201;48.776;9.128;2022-11-20T16:54:58;8.40;99.90
10312;DHT22;5201;48.776;9.128;2022-11-20T16:57:25;9.40;99.90
10312;DHT22;5201;48.776;9.128;2022-11-20T16:59:51;8.30;99.90
10312;DHT22;5201;48.776;9.128;2022-11-20T17:02:17;8.30;99.90
10312;DHT22;5201;48.776;9.128;2022-11-20T17:04:43;8.30;99.90
10312;DHT22;5201;48.776;9.128;2022-11-20T17:07:08;8.20;99.90
10312;DHT22;5201;48.776;9.128;2022-11-20T17:09:34;8.10;99.90
10312;DHT22;5201;48.776;9.128;2022-11-20T17:11:59;8.10;99.90
10312;DHT22;5201;48.776;9.128;2022-11-20T17:14:25;8.30;99.90
10312;DHT22;5201;48.776;9.128;2022-11-20T17:16:51;8.30;99.90
10312;DHT22;5201;48.776;9.128;2022-11-20T17:19:16;8.20;99.90
10312;DHT22;5201;48.776;9.128;2022-11-20T17:21:42;8.20;99.90
10312;DHT22;5201;48.776;9.128;2022-11-20T17:24:10;8.10;99.90
10312;DHT22;5201;48.776;9.128;2022-11-20T17:26:38;8.20;99.90
10312;DHT22;5201;48.776;9.128;2022-11-20T17:29:12;8.20;99.90
10312;DHT22;5201;48.776;9.128;2022-11-20T17:31:38;8.10;99.90
10312;DHT22;5201;48.776;9.128;2022-11-20T17:34:05;8.00;99.90
10312;DHT22;5201;48.776;9.128;2022-11-20T17:36:31;8.00;99.90
10312;DHT22;5201;48.776;9.128;2022-11-20T17:38:57;8.00;99.90